createdAt,value
2023-01-30T00:01:40.681Z,46.53
2023-01-30T00:07:34.201Z,46.69
2023-01-30T00:10:00.875Z,46.91
2023-01-30T00:12:27.644Z,46.83
2023-01-30T00:14:54.234Z,46.85
2023-01-30T00:17:21.004Z,46.85
2023-01-30T00:19:47.592Z,46.87
2023-01-30T00:22:14.352Z,47.06
2023-01-30T00:24:41.080Z,47.07
2023-01-30T00:27:07.652Z,46.95
2023-01-30T00:29:34.182Z,47.13
2023-01-30T00:32:00.741Z,47.13
2023-01-30T00:34:27.270Z,47.15
2023-01-30T00:37:07.519Z,47.23
2023-01-30T00:39:34.869Z,47.34
2023-01-30T00:42:19.595Z,47.18
2023-01-30T00:45:12.028Z,47.22
2023-01-30T00:47:38.455Z,47.27
2023-01-30T00:50:05.815Z,47.12
2023-01-30T00:52:32.394Z,47.36
2023-01-30T00:54:59.032Z,47.41
2023-01-30T00:57:25.539Z,47.31
2023-01-30T00:59:52.114Z,47.62
2023-01-30T01:02:18.703Z,47.54
2023-01-30T01:04:45.227Z,47.61
2023-01-30T01:07:12.962Z,47.54
2023-01-30T01:09:39.736Z,47.47
2023-01-30T01:12:06.912Z,47.66
2023-01-30T01:14:33.845Z,47.62
2023-01-30T01:17:00.492Z,47.66
2023-01-30T01:19:27.261Z,47.51
2023-01-30T01:21:53.926Z,47.54
2023-01-30T01:24:20.472Z,47.55
2023-01-30T01:26:48.279Z,47.77
2023-01-30T01:29:16.059Z,47.77
2023-01-30T01:31:43.848Z,47.82
2023-01-30T01:34:11.105Z,47.70
2023-01-30T01:36:54.172Z,47.60
2023-01-30T01:39:21.375Z,47.52
2023-01-30T01:41:47.956Z,47.75
2023-01-30T01:44:17.154Z,47.73
2023-01-30T01:46:49.066Z,47.90
2023-01-30T01:49:19.942Z,47.95
2023-01-30T01:52:11.752Z,47.98
2023-01-30T01:54:47.041Z,47.93
2023-01-30T01:57:38.901Z,48.07
2023-01-30T02:00:11.638Z,47.91
2023-01-30T02:02:43.562Z,47.91
2023-01-30T02:05:12.404Z,47.85
2023-01-30T02:07:55.012Z,47.88
2023-01-30T02:10:25.571Z,47.87
2023-01-30T02:12:54.879Z,48.04
2023-01-30T02:15:21.435Z,48.07
2023-01-30T02:17:48.069Z,48.25
2023-01-30T02:20:57.994Z,48.31
2023-01-30T02:23:53.047Z,48.47
2023-01-30T02:26:22.690Z,48.58
2023-01-30T02:29:10.219Z,48.54
2023-01-30T02:32:05.990Z,48.58
2023-01-30T02:35:03.259Z,48.76
2023-01-30T02:38:08.327Z,48.62
2023-01-30T02:40:56.100Z,48.63
2023-01-30T02:43:41.965Z,48.67
2023-01-30T02:46:18.468Z,48.74
2023-01-30T02:48:44.969Z,48.58
2023-01-30T02:51:18.820Z,48.64
2023-01-30T02:53:47.896Z,48.59
2023-01-30T02:56:14.785Z,48.55
2023-01-30T02:58:48.602Z,48.63
2023-01-30T03:01:33.889Z,48.75
2023-01-30T03:04:30.182Z,48.70
2023-01-30T03:07:34.872Z,48.73
2023-01-30T03:10:06.720Z,48.77
2023-01-30T03:12:50.289Z,48.68
2023-01-30T03:15:33.274Z,48.73
2023-01-30T03:17:59.903Z,48.78
2023-01-30T03:20:26.442Z,48.87
2023-01-30T03:22:54.434Z,48.94
2023-01-30T03:25:22.847Z,48.88
2023-01-30T03:27:52.064Z,48.96
2023-01-30T03:30:18.910Z,49.18
2023-01-30T03:32:45.446Z,49.16
2023-01-30T03:35:12.811Z,49.29
2023-01-30T03:37:39.477Z,49.18
2023-01-30T03:40:06.733Z,49.39
2023-01-30T03:42:33.191Z,48.96
2023-01-30T03:44:59.708Z,49.40
2023-01-30T03:47:26.278Z,49.34
2023-01-30T03:49:52.810Z,49.26
2023-01-30T03:52:19.305Z,49.35
2023-01-30T03:54:45.795Z,49.25
2023-01-30T03:57:12.290Z,49.36
2023-01-30T03:59:38.818Z,49.32
2023-01-30T04:02:05.485Z,49.15
2023-01-30T04:04:32.010Z,49.02
2023-01-30T04:06:58.481Z,49.36
2023-01-30T04:09:25.122Z,49.17
2023-01-30T04:11:51.867Z,49.32
2023-01-30T04:14:18.407Z,49.27
2023-01-30T04:16:45.926Z,49.44
2023-01-30T04:19:12.557Z,49.31
2023-01-30T04:21:39.245Z,49.39
2023-01-30T04:24:06.146Z,49.42
2023-01-30T04:26:32.742Z,49.58
2023-01-30T04:28:59.257Z,49.55
2023-01-30T04:31:25.855Z,49.72
2023-01-30T04:33:52.375Z,49.72
2023-01-30T04:36:18.927Z,49.79
2023-01-30T04:38:45.527Z,49.65
2023-01-30T04:41:12.090Z,49.81
2023-01-30T04:43:38.645Z,49.76
2023-01-30T04:46:05.298Z,49.86
2023-01-30T04:48:32.133Z,49.97
2023-01-30T04:50:58.713Z,49.89
2023-01-30T04:53:25.691Z,50.08
2023-01-30T04:55:52.542Z,50.23
2023-01-30T04:58:22.168Z,49.99
2023-01-30T05:00:50.112Z,50.12
2023-01-30T05:03:17.283Z,49.86
2023-01-30T05:05:47.382Z,50.19
2023-01-30T05:08:14.982Z,50.10
2023-01-30T05:10:41.813Z,50.19
2023-01-30T05:13:08.427Z,49.95
2023-01-30T05:15:34.949Z,50.10
2023-01-30T05:18:01.594Z,49.84
2023-01-30T05:20:28.277Z,49.93
2023-01-30T05:22:54.776Z,50.00
2023-01-30T05:25:21.446Z,49.99
2023-01-30T05:27:48.103Z,49.95
2023-01-30T05:30:14.847Z,49.90
2023-01-30T05:32:41.467Z,50.19
2023-01-30T05:35:08.150Z,50.12
2023-01-30T05:37:34.696Z,50.45
2023-01-30T05:40:01.254Z,50.38
2023-01-30T05:42:27.766Z,50.26
2023-01-30T05:44:54.332Z,50.25
2023-01-30T05:47:20.900Z,50.24
2023-01-30T05:49:47.458Z,50.46
2023-01-30T05:52:14.046Z,50.41
2023-01-30T05:54:40.639Z,50.34
2023-01-30T05:57:07.152Z,50.60
2023-01-30T05:59:33.655Z,50.52
2023-01-30T06:02:00.223Z,50.56
2023-01-30T06:04:26.711Z,50.59
2023-01-30T06:06:53.229Z,50.47
2023-01-30T06:09:19.788Z,50.70
2023-01-30T06:11:46.399Z,50.69
2023-01-30T06:14:12.909Z,50.38
2023-01-30T06:16:39.551Z,50.39
2023-01-30T06:19:06.083Z,50.44
2023-01-30T06:21:32.678Z,50.47
2023-01-30T06:23:59.247Z,50.61
2023-01-30T06:26:25.986Z,50.50
2023-01-30T06:28:52.505Z,50.66
2023-01-30T06:31:19.340Z,50.66
2023-01-30T06:33:45.933Z,50.75
2023-01-30T06:36:12.543Z,50.50
2023-01-30T06:38:39.093Z,50.70
2023-01-30T06:41:06.053Z,50.51
2023-01-30T06:43:32.575Z,50.72
2023-01-30T06:46:00.049Z,50.43
2023-01-30T06:48:26.701Z,50.83
2023-01-30T06:50:53.295Z,50.52
2023-01-30T06:53:19.769Z,50.56
2023-01-30T06:55:46.273Z,50.34
2023-01-30T07:00:43.800Z,50.67
2023-01-30T07:03:11.990Z,50.58
2023-01-30T07:05:40.110Z,50.83
2023-01-30T07:08:06.859Z,51.10
2023-01-30T07:10:33.609Z,50.92
2023-01-30T07:13:00.261Z,51.21
2023-01-30T07:15:26.825Z,51.19
2023-01-30T07:17:53.331Z,51.36
2023-01-30T07:20:19.967Z,51.22
2023-01-30T07:22:51.572Z,51.17
2023-01-30T07:25:19.137Z,51.31
2023-01-30T07:27:53.164Z,51.09
2023-01-30T07:30:20.100Z,51.08
2023-01-30T07:32:54.668Z,50.92
2023-01-30T07:35:22.877Z,50.78
2023-01-30T07:37:49.908Z,50.68
2023-01-30T07:40:17.143Z,50.83
2023-01-30T07:42:43.847Z,51.03
2023-01-30T07:45:10.932Z,51.09
2023-01-30T07:47:37.440Z,51.17
2023-01-30T07:50:04.577Z,51.09
2023-01-30T07:52:31.096Z,51.29
2023-01-30T07:54:59.454Z,51.28
2023-01-30T07:57:27.096Z,51.20
2023-01-30T07:59:53.616Z,50.89
2023-01-30T08:02:20.125Z,50.96
2023-01-30T08:04:46.759Z,50.86
2023-01-30T08:07:13.434Z,50.84
2023-01-30T08:09:39.931Z,50.73
2023-01-30T08:12:06.514Z,50.80
2023-01-30T08:14:33.212Z,50.65
2023-01-30T08:16:59.773Z,50.47
2023-01-30T08:19:26.279Z,50.44
2023-01-30T08:21:52.800Z,50.45
2023-01-30T08:24:21.075Z,50.40
2023-01-30T08:26:50.713Z,50.25
2023-01-30T08:29:17.329Z,50.27
2023-01-30T08:31:44.091Z,50.29
2023-01-30T08:34:10.853Z,50.02
2023-01-30T08:36:37.419Z,50.03
2023-01-30T08:39:04.144Z,49.97
2023-01-30T08:41:30.661Z,49.87
2023-01-30T08:43:57.190Z,49.79
2023-01-30T08:46:23.710Z,49.80
2023-01-30T08:48:50.539Z,49.86
2023-01-30T08:51:17.451Z,49.77
2023-01-30T08:53:43.974Z,49.48
2023-01-30T08:56:10.688Z,49.49
2023-01-30T08:58:37.314Z,49.40
2023-01-30T09:01:07.610Z,49.40
2023-01-30T09:03:34.439Z,49.21
2023-01-30T09:06:01.140Z,49.14
2023-01-30T09:08:27.749Z,49.04
2023-01-30T09:10:59.421Z,49.16
2023-01-30T09:13:26.443Z,49.13
2023-01-30T09:15:53.195Z,48.92
2023-01-30T09:18:19.882Z,48.94
2023-01-30T09:20:46.500Z,48.82
2023-01-30T09:23:13.134Z,48.67
2023-01-30T09:25:39.746Z,48.69
2023-01-30T09:28:06.307Z,48.75
2023-01-30T09:30:32.883Z,48.62
2023-01-30T09:32:59.475Z,48.26
2023-01-30T09:35:25.952Z,48.39
2023-01-30T09:37:53.672Z,48.15
2023-01-30T09:40:28.617Z,48.15
2023-01-30T09:43:13.845Z,48.11
2023-01-30T09:45:44.802Z,47.99
2023-01-30T09:48:37.025Z,48.01
2023-01-30T09:51:13.906Z,47.93
2023-01-30T09:53:49.396Z,48.00
2023-01-30T09:56:15.982Z,48.00
2023-01-30T09:58:56.160Z,47.98
2023-01-30T10:01:53.630Z,47.93
2023-01-30T10:04:29.406Z,48.03
2023-01-30T10:07:07.367Z,47.90
2023-01-30T10:09:39.952Z,47.98
2023-01-30T10:12:27.665Z,47.85
2023-01-30T10:15:00.305Z,47.75
2023-01-30T10:17:33.036Z,47.69
2023-01-30T10:19:59.570Z,47.62
2023-01-30T10:22:45.991Z,47.44
2023-01-30T10:25:36.891Z,47.33
2023-01-30T10:28:12.276Z,47.31
2023-01-30T10:30:39.176Z,47.29
2023-01-30T10:33:08.648Z,47.18
2023-01-30T10:35:38.726Z,47.19
2023-01-30T10:38:22.111Z,47.23
2023-01-30T10:41:05.306Z,47.55
2023-01-30T10:43:37.080Z,47.60
2023-01-30T10:46:32.081Z,48.10
2023-01-30T10:49:06.305Z,48.41
2023-01-30T10:51:42.415Z,48.65
2023-01-30T10:54:13.868Z,48.63
2023-01-30T10:56:45.431Z,48.79
2023-01-30T10:59:30.388Z,48.96
2023-01-30T11:02:12.541Z,49.09
2023-01-30T11:04:48.098Z,48.80
2023-01-30T11:07:15.037Z,48.80
2023-01-30T11:09:44.830Z,48.98
2023-01-30T11:12:11.826Z,49.06
2023-01-30T11:15:01.081Z,49.02
2023-01-30T11:17:34.373Z,48.96
2023-01-30T11:20:15.449Z,48.91
2023-01-30T11:22:55.020Z,49.00
2023-01-30T11:25:23.008Z,48.89
2023-01-30T11:28:04.103Z,49.13
2023-01-30T11:30:34.700Z,48.86
2023-01-30T11:33:15.011Z,49.05
2023-01-30T11:35:54.390Z,49.20
2023-01-30T11:38:29.948Z,49.05
2023-01-30T11:41:02.688Z,49.16
2023-01-30T11:43:29.317Z,49.35
2023-01-30T11:45:56.024Z,49.25
2023-01-30T11:48:33.439Z,49.45
2023-01-30T11:51:14.137Z,49.28
2023-01-30T11:53:45.214Z,49.17
2023-01-30T11:56:32.454Z,49.05
2023-01-30T11:59:00.200Z,48.92
2023-01-30T12:01:29.453Z,48.84
2023-01-30T12:03:57.264Z,48.93
2023-01-30T12:06:32.276Z,48.97
2023-01-30T12:08:59.110Z,49.04
2023-01-30T12:11:31.545Z,48.98
2023-01-30T12:14:19.058Z,49.05
2023-01-30T12:16:54.457Z,48.97
2023-01-30T12:19:33.030Z,49.09
2023-01-30T12:22:09.172Z,49.10
2023-01-30T12:24:46.340Z,49.19
2023-01-30T12:27:44.905Z,49.10
2023-01-30T12:30:33.022Z,49.23
2023-01-30T12:35:51.279Z,49.25
2023-01-30T12:38:40.477Z,49.16
2023-01-30T12:41:21.186Z,49.29
2023-01-30T12:44:15.679Z,49.24
2023-01-30T12:46:57.803Z,49.20
2023-01-30T12:49:30.728Z,49.27
2023-01-30T12:52:08.660Z,49.31
2023-01-30T12:54:58.332Z,49.20
2023-01-30T12:57:34.273Z,49.16
2023-01-30T13:00:09.626Z,49.12
2023-01-30T13:03:01.149Z,49.22
2023-01-30T13:05:51.282Z,49.17
2023-01-30T13:08:33.540Z,49.23
2023-01-30T13:11:09.424Z,49.31
2023-01-30T13:13:46.409Z,49.32
2023-01-30T13:16:25.283Z,49.34
2023-01-30T13:18:55.749Z,49.27
2023-01-30T13:21:47.677Z,49.35
2023-01-30T13:24:20.431Z,49.27
2023-01-30T13:26:47.851Z,49.47
2023-01-30T13:29:31.759Z,49.25
2023-01-30T13:32:01.273Z,49.40
2023-01-30T13:34:40.301Z,49.55
2023-01-30T13:37:07.698Z,49.43
2023-01-30T13:39:42.533Z,49.57
2023-01-30T13:42:26.637Z,49.61
2023-01-30T13:44:54.050Z,49.63
2023-01-30T13:47:42.361Z,49.54
2023-01-30T13:50:33.435Z,49.53
2023-01-30T13:53:08.744Z,49.41
2023-01-30T13:55:55.824Z,49.57
2023-01-30T13:58:44.073Z,49.33
2023-01-30T14:01:13.201Z,49.44
2023-01-30T14:03:41.513Z,49.35
2023-01-30T14:06:31.505Z,49.37
2023-01-30T14:09:01.348Z,49.31
2023-01-30T14:11:38.634Z,49.35
2023-01-30T14:14:36.760Z,49.49
2023-01-30T14:17:17.915Z,49.22
2023-01-30T14:19:58.510Z,49.11
2023-01-30T14:22:28.735Z,49.00
2023-01-30T14:25:23.447Z,48.99
2023-01-30T14:27:52.781Z,49.12
2023-01-30T14:30:31.914Z,49.01
2023-01-30T14:33:00.599Z,48.97
2023-01-30T14:35:31.582Z,48.95
2023-01-30T14:38:15.747Z,48.94
2023-01-30T14:40:44.258Z,49.02
2023-01-30T14:43:14.908Z,48.83
2023-01-30T14:45:47.868Z,48.95
2023-01-30T14:48:39.455Z,49.04
2023-01-30T14:51:26.117Z,48.84
2023-01-30T14:54:23.416Z,48.89
2023-01-30T14:57:06.145Z,48.66
2023-01-30T14:59:37.865Z,48.68
2023-01-30T15:02:13.362Z,48.88
2023-01-30T15:04:41.915Z,48.73
2023-01-30T15:07:27.009Z,48.80
2023-01-30T15:09:59.311Z,48.80
2023-01-30T15:12:44.034Z,48.70
2023-01-30T15:15:20.804Z,48.56
2023-01-30T15:18:10.594Z,48.77
2023-01-30T15:20:43.043Z,48.75
2023-01-30T15:23:14.740Z,48.66
2023-01-30T15:26:35.444Z,48.65
2023-01-30T15:29:20.520Z,48.52
2023-01-30T15:32:00.685Z,48.69
2023-01-30T15:34:31.516Z,48.74
2023-01-30T15:36:59.438Z,48.74
2023-01-30T15:39:27.915Z,48.76
2023-01-30T15:42:01.468Z,48.91
2023-01-30T15:44:27.992Z,48.79
2023-01-30T15:47:02.096Z,48.97
2023-01-30T15:49:43.713Z,48.86
2023-01-30T15:52:15.337Z,48.99
2023-01-30T15:54:49.933Z,49.01
2023-01-30T15:57:22.248Z,49.17
2023-01-30T15:59:49.037Z,49.21
2023-01-30T16:02:35.343Z,49.08
2023-01-30T16:05:17.306Z,49.11
2023-01-30T16:07:45.826Z,49.16
2023-01-30T16:10:18.830Z,49.32
2023-01-30T16:12:45.670Z,49.21
2023-01-30T16:15:19.928Z,49.28
2023-01-30T16:17:55.453Z,49.31
2023-01-30T16:20:22.112Z,49.24
2023-01-30T16:22:48.688Z,49.09
2023-01-30T16:25:20.137Z,49.37
2023-01-30T16:27:48.885Z,49.46
2023-01-30T16:30:28.682Z,49.10
2023-01-30T16:32:56.267Z,49.45
2023-01-30T16:35:27.873Z,49.36
2023-01-30T16:37:55.974Z,49.22
2023-01-30T16:40:24.923Z,49.27
2023-01-30T16:43:19.100Z,49.26
2023-01-30T16:45:54.636Z,49.39
2023-01-30T16:48:31.359Z,49.30
2023-01-30T16:50:58.251Z,49.40
2023-01-30T16:53:26.779Z,49.45
2023-01-30T16:56:01.668Z,49.64
2023-01-30T16:58:32.595Z,49.65
2023-01-30T17:01:05.357Z,49.70
2023-01-30T17:03:36.848Z,49.80
2023-01-30T17:06:12.544Z,50.07
2023-01-30T17:08:52.160Z,50.30
2023-01-30T17:11:38.008Z,50.60
2023-01-30T17:14:16.556Z,50.70
2023-01-30T17:16:43.378Z,50.95
2023-01-30T17:19:10.018Z,51.36
2023-01-30T17:21:49.091Z,51.33
2023-01-30T17:24:17.702Z,51.36
2023-01-30T17:26:45.456Z,51.16
2023-01-30T17:29:23.263Z,51.39
2023-01-30T17:31:56.766Z,51.51
2023-01-30T17:34:24.526Z,51.77
2023-01-30T17:36:54.134Z,51.85
2023-01-30T17:39:22.434Z,51.97
2023-01-30T17:41:49.464Z,52.20
2023-01-30T17:44:16.955Z,52.28
2023-01-30T17:46:47.455Z,52.07
2023-01-30T17:49:24.321Z,52.25
2023-01-30T17:51:51.635Z,52.16
2023-01-30T17:54:20.079Z,52.19
2023-01-30T17:56:59.953Z,52.47
2023-01-30T17:59:26.980Z,52.45
2023-01-30T18:01:53.882Z,52.54
2023-01-30T18:04:20.841Z,52.68
2023-01-30T18:06:50.399Z,52.55
2023-01-30T18:09:19.401Z,52.69
2023-01-30T18:11:47.043Z,52.57
2023-01-30T18:14:14.356Z,52.59
2023-01-30T18:16:41.148Z,52.61
2023-01-30T18:19:09.743Z,52.56
2023-01-30T18:21:38.621Z,52.86
2023-01-30T18:24:05.835Z,52.75
2023-01-30T18:26:32.723Z,52.74
2023-01-30T18:28:59.776Z,52.75
2023-01-30T18:31:28.994Z,52.87
2023-01-30T18:33:55.987Z,53.04
2023-01-30T18:36:23.119Z,52.93
2023-01-30T18:38:50.220Z,53.06
2023-01-30T18:41:20.126Z,53.07
2023-01-30T18:43:50.208Z,53.36
2023-01-30T18:46:17.916Z,53.22
2023-01-30T18:48:45.196Z,53.16
2023-01-30T18:51:14.599Z,53.44
2023-01-30T18:53:44.800Z,53.47
2023-01-30T18:56:13.535Z,53.35
2023-01-30T18:58:41.395Z,53.53
2023-01-30T19:01:14.172Z,53.60
2023-01-30T19:03:41.540Z,54.02
2023-01-30T19:06:10.720Z,54.14
2023-01-30T19:08:38.210Z,54.13
2023-01-30T19:11:28.384Z,54.40
2023-01-30T19:13:55.823Z,54.25
2023-01-30T19:16:24.380Z,54.39
2023-01-30T19:18:51.209Z,54.49
2023-01-30T19:21:18.069Z,54.52
2023-01-30T19:23:44.729Z,54.54
2023-01-30T19:26:11.831Z,54.84
2023-01-30T19:28:39.119Z,54.10
2023-01-30T19:31:07.450Z,54.29
2023-01-30T19:33:34.042Z,54.35
2023-01-30T19:36:15.732Z,54.38
2023-01-30T19:38:43.242Z,54.18
2023-01-30T19:41:14.116Z,54.22
2023-01-30T19:43:40.965Z,54.11
2023-01-30T19:46:08.557Z,54.18
2023-01-30T19:48:35.116Z,54.32
2023-01-30T19:51:11.601Z,54.48
2023-01-30T19:53:38.296Z,54.32
2023-01-30T19:56:05.485Z,54.44
2023-01-30T19:58:32.099Z,54.42
2023-01-30T20:01:12.044Z,54.41
2023-01-30T20:03:40.745Z,54.59
2023-01-30T20:06:07.347Z,54.49
2023-01-30T20:08:34.947Z,54.53
2023-01-30T20:11:08.185Z,54.79
2023-01-30T20:13:36.360Z,54.87
2023-01-30T20:16:06.501Z,55.11
2023-01-30T20:18:35.282Z,55.32
2023-01-30T20:21:11.283Z,55.43
2023-01-30T20:23:38.128Z,55.47
2023-01-30T20:26:06.182Z,55.54
2023-01-30T20:28:33.587Z,55.43
2023-01-30T20:33:41.806Z,55.55
2023-01-30T20:36:14.669Z,55.53
2023-01-30T20:38:43.759Z,55.67
2023-01-30T20:41:13.251Z,55.80
2023-01-30T20:43:41.177Z,55.84
2023-01-30T20:46:16.266Z,55.95
2023-01-30T20:48:42.847Z,55.89
2023-01-30T20:51:14.398Z,55.94
2023-01-30T20:53:46.690Z,55.89
2023-01-30T20:56:13.225Z,56.09
2023-01-30T20:58:39.907Z,56.19
2023-01-30T21:01:18.375Z,56.16
2023-01-30T21:03:48.855Z,56.19
2023-01-30T21:06:43.006Z,56.29
2023-01-30T21:09:02.480Z,56.28
2023-01-30T21:11:29.308Z,56.26
2023-01-30T21:13:55.923Z,56.39
2023-01-30T21:16:27.757Z,56.46
2023-01-30T21:19:01.344Z,56.42
2023-01-30T21:21:35.903Z,56.65
2023-01-30T21:24:05.526Z,56.52
2023-01-30T21:26:33.767Z,56.62
2023-01-30T21:29:01.185Z,56.58
2023-01-30T21:31:29.426Z,56.47
2023-01-30T21:33:57.362Z,56.54
2023-01-30T21:36:24.406Z,56.41
2023-01-30T21:39:09.700Z,56.58
2023-01-30T21:41:56.512Z,56.42
2023-01-30T21:44:28.222Z,56.59
2023-01-30T21:46:55.081Z,56.42
2023-01-30T21:49:22.296Z,56.43
2023-01-30T21:51:49.517Z,56.55
2023-01-30T21:54:17.322Z,56.55
2023-01-30T21:56:44.840Z,56.51
2023-01-30T21:59:11.960Z,56.71
2023-01-30T22:01:40.406Z,56.78
2023-01-30T22:04:10.051Z,56.89
2023-01-30T22:06:37.750Z,56.98
2023-01-30T22:09:05.496Z,57.04
2023-01-30T22:11:32.440Z,56.98
2023-01-30T22:13:58.995Z,56.90
2023-01-30T22:16:27.527Z,57.09
2023-01-30T22:18:56.664Z,56.96
2023-01-30T22:21:24.870Z,56.93
2023-01-30T22:23:52.754Z,56.90
2023-01-30T22:26:21.256Z,56.77
2023-01-30T22:28:48.227Z,56.64
2023-01-30T22:31:17.244Z,56.64
2023-01-30T22:33:48.392Z,56.71
2023-01-30T22:36:15.391Z,56.55
2023-01-30T22:38:45.692Z,56.43
2023-01-30T22:41:17.224Z,56.51
2023-01-30T22:43:45.903Z,56.57
2023-01-30T22:46:12.869Z,56.56
2023-01-30T22:48:39.658Z,56.40
2023-01-30T22:51:14.097Z,56.47
2023-01-30T22:53:45.949Z,56.50
2023-01-30T22:56:15.361Z,56.72
2023-01-30T22:58:42.651Z,56.63
2023-01-30T23:01:16.375Z,56.60
2023-01-30T23:03:44.177Z,56.45
2023-01-30T23:06:14.004Z,56.50
2023-01-30T23:08:42.022Z,56.58
2023-01-30T23:11:10.371Z,56.55
2023-01-30T23:13:36.993Z,56.50
2023-01-30T23:16:05.098Z,56.64
2023-01-30T23:18:50.282Z,56.61
2023-01-30T23:21:17.245Z,56.62
2023-01-30T23:23:45.322Z,56.38
2023-01-30T23:26:12.766Z,56.57
2023-01-30T23:28:40.671Z,56.48
2023-01-30T23:31:15.918Z,56.46
2023-01-30T23:33:42.918Z,56.53
2023-01-30T23:36:11.839Z,56.32
2023-01-30T23:38:38.894Z,56.13
2023-01-30T23:41:20.311Z,56.21
2023-01-30T23:43:48.130Z,56.19
2023-01-30T23:46:29.604Z,56.12
2023-01-30T23:48:58.584Z,55.99
2023-01-30T23:51:26.846Z,55.82
2023-01-30T23:53:54.089Z,55.94
2023-01-30T23:56:21.939Z,55.88
2023-01-30T23:58:49.900Z,55.93
